This is the latest recevied weather packets stored in our database for station/object E27ASY-4. If no packets are shown the sender has not sent any weather packets the latest 1 day(s).
| Time | Temp. | Humidity | Pressure | Rain* | Wind** | Luminosity | Snow |
|---|---|---|---|---|---|---|---|
| 1836274562 | 37.78° C | 69% | 1006 hPa | - | 0 m/s | 0 W/m² | - |
| 1836274456 | 38.33° C | 67% | 1006 hPa | - | 0 m/s | 0 W/m² | - |
| 1836274240 | 38.89° C | 66% | 1006 hPa | - | 0 m/s | 0 W/m² | - |
| 1836274134 | 39.44° C | 66% | 1006 hPa | - | 0 m/s | 0 W/m² | - |
| 1836273918 | 37.78° C | 71% | 1006 hPa | - | 0 m/s | 0 W/m² | - |
| 1778036564 | 38.89° C | 49% | 1007 hPa | - | 0 m/s | 0 W/m² | - |
| 1778036242 | 38.33° C | 50% | 1007 hPa | - | 0 m/s | 0 W/m² | - |
| 1778035921 | 38.33° C | 50% | 1007 hPa | - | 0 m/s | 0 W/m² | - |
| 1778035598 | 37.78° C | 50% | 1007 hPa | - | 0 m/s | 0 W/m² | - |
| 1778035276 | 37.78° C | 51% | 1007 hPa | - | 0 m/s | 0 W/m² | - |
| 1778034954 | 37.78° C | 54% | 1007 hPa | - | 0 m/s | 0 W/m² | - |
| 1778034635 | 37.22° C | 55% | 1007 hPa | - | 0 m/s | 0 W/m² | - |
| 1778034310 | 37.22° C | 57% | 1007 hPa | - | 0 m/s | 0 W/m² | - |
| 1778033989 | 36.67° C | 58% | 1007 hPa | - | 0 m/s | 0 W/m² | - |
| 1778033667 | 36.67° C | 59% | 1007 hPa | - | 0 m/s | 0 W/m² | - |
| 1778033344 | 36.11° C | 60% | 1007 hPa | - | 0 m/s | 0 W/m² | - |
| 1778033023 | 36.11° C | 61% | 1007 hPa | - | 0 m/s | 0 W/m² | - |
| 1778032700 | 36.11° C | 62% | 1007 hPa | - | 0 m/s | 0 W/m² | - |
| 1778032378 | 35.56° C | 63% | 1007 hPa | - | 0 m/s | 0 W/m² | - |
| 1778032056 | 35.56° C | 63% | 1007 hPa | - | 0 m/s | 0 W/m² | - |
| 1778031734 | 35.56° C | 64% | 1007 hPa | - | 0 m/s | 0 W/m² | - |
| 1778031412 | 35.56° C | 64% | 1007 hPa | - | 0 m/s | 0 W/m² | - |
| 1778031090 | 35.56° C | 67% | 1007 hPa | - | 0 m/s | 0 W/m² | - |
| 1778030768 | 35° C | 66% | 1007 hPa | - | 0 m/s | 0 W/m² | - |
| 1778030446 | 35° C | 69% | 1007 hPa | - | 0 m/s | 0 W/m² | - |
* Rain since midnight (hover to see other rain measurements)
** Current wind speed in m/s (hover to see current wind gust speed)